Time,TemperatureF,DewpointF,PressureIn,WindDirection,WindDirectionDegrees,WindSpeedMPH,WindSpeedGustMPH,Humidity,HourlyPrecipIn,Conditions,Clouds,dailyrainin,SoftwareType,DateUTC
2013-04-18 00:01:00,69.1,66.7,29.88,ESE,112,3.2,-999.0,92,-99.99,,,0.00,Acu-Link.com,2013-04-18 04:01:00,
2013-04-18 00:16:00,68.9,66.5,29.89,NE,45,1.7,-999.0,92,-99.99,,,0.00,Acu-Link.com,2013-04-18 04:16:00,
2013-04-18 00:31:00,68.5,66.4,29.89,SSE,157,2.7,-999.0,93,-99.99,,,0.00,Acu-Link.com,2013-04-18 04:31:00,
2013-04-18 00:46:00,68.2,66.1,29.89,South,180,4.2,-999.0,93,-99.99,,,0.00,Acu-Link.com,2013-04-18 04:46:00,
2013-04-18 01:01:00,67.8,66.0,29.88,ESE,112,3.2,-999.0,94,-99.99,,,0.00,Acu-Link.com,2013-04-18 05:01:00,
2013-04-18 01:17:00,67.8,66.3,29.87,East,90,3.7,-999.0,95,-99.99,,,0.00,Acu-Link.com,2013-04-18 05:17:00,
2013-04-18 01:32:00,67.5,66.0,29.87,ESE,112,3.2,-999.0,95,-99.99,,,0.00,Acu-Link.com,2013-04-18 05:32:00,
2013-04-18 01:47:00,67.3,66.1,29.87,SE,135,3.2,-999.0,96,-99.99,,,0.00,Acu-Link.com,2013-04-18 05:47:00,
2013-04-18 02:02:00,67.1,65.9,29.86,SSE,157,1.7,-999.0,96,-99.99,,,0.00,Acu-Link.com,2013-04-18 06:02:00,
2013-04-18 02:17:00,66.9,66.0,29.86,ESE,112,4.7,-999.0,97,-99.99,,,0.00,Acu-Link.com,2013-04-18 06:17:00,
2013-04-18 02:33:00,66.9,66.0,29.85,East,90,2.7,-999.0,97,-99.99,,,0.00,Acu-Link.com,2013-04-18 06:33:00,
2013-04-18 02:48:00,66.7,66.1,29.84,ESE,112,2.7,-999.0,98,-99.99,,,0.00,Acu-Link.com,2013-04-18 06:48:00,
2013-04-18 03:03:00,66.6,66.0,29.84,ESE,112,2.7,-999.0,98,-99.99,,,0.00,Acu-Link.com,2013-04-18 07:03:00,
2013-04-18 03:18:00,66.2,65.6,29.84,East,90,0.0,-999.0,98,-99.99,,,0.00,Acu-Link.com,2013-04-18 07:18:00,
2013-04-18 03:34:00,66.0,65.4,29.84,ESE,112,0.0,-999.0,98,-99.99,,,0.00,Acu-Link.com,2013-04-18 07:34:00,
2013-04-18 03:49:00,66.0,65.7,29.83,SSE,157,1.1,-999.0,99,-99.99,,,0.00,Acu-Link.com,2013-04-18 07:49:00,
2013-04-18 04:34:00,65.8,65.5,29.84,NW,315,0.0,-999.0,99,-99.99,,,0.00,Acu-Link.com,2013-04-18 08:34:00,
2013-04-18 04:53:00,66.0,65.7,29.84,ENE,67,0.0,-999.0,99,-99.99,,,0.00,Acu-Link.com,2013-04-18 08:53:00,
2013-04-18 05:08:00,65.8,65.5,29.84,NNE,22,0.0,-999.0,99,-99.99,,,0.00,Acu-Link.com,2013-04-18 09:08:00,
2013-04-18 05:24:00,65.5,65.2,29.84,West,270,0.0,-999.0,99,-99.99,,,0.00,Acu-Link.com,2013-04-18 09:24:00,
2013-04-18 05:39:00,65.5,65.2,29.83,WNW,292,0.0,-999.0,99,-99.99,,,0.00,Acu-Link.com,2013-04-18 09:39:00,
2013-04-18 05:54:00,65.5,65.2,29.83,SE,135,0.0,-999.0,99,-99.99,,,0.00,Acu-Link.com,2013-04-18 09:54:00,
2013-04-18 06:09:00,65.1,64.8,29.83,South,180,0.0,-999.0,99,-99.99,,,0.00,Acu-Link.com,2013-04-18 10:09:00,
2013-04-18 06:24:00,65.7,65.4,29.84,ESE,112,2.7,-999.0,99,-99.99,,,0.00,Acu-Link.com,2013-04-18 10:24:00,
2013-04-18 06:40:00,65.8,65.5,29.85,ESE,112,2.7,-999.0,99,-99.99,,,0.00,Acu-Link.com,2013-04-18 10:40:00,
2013-04-18 06:55:00,65.8,65.5,29.84,East,90,3.2,-999.0,99,-99.99,,,0.00,Acu-Link.com,2013-04-18 10:55:00,
2013-04-18 07:10:00,65.8,65.5,29.85,ESE,112,2.2,-999.0,99,-99.99,,,0.00,Acu-Link.com,2013-04-18 11:10:00,
2013-04-18 07:25:00,65.8,65.5,29.86,SW,225,0.0,-999.0,99,-99.99,,,0.00,Acu-Link.com,2013-04-18 11:25:00,
2013-04-18 07:41:00,67.1,66.8,29.86,ESE,112,2.2,-999.0,99,-99.99,,,0.00,Acu-Link.com,2013-04-18 11:41:00,
2013-04-18 07:56:00,68.0,67.7,29.86,ESE,112,1.1,-999.0,99,-99.99,,,0.00,Acu-Link.com,2013-04-18 11:56:00,
2013-04-18 08:11:00,70.7,69.5,29.87,East,90,2.2,-999.0,96,-99.99,,,0.00,Acu-Link.com,2013-04-18 12:11:00,
2013-04-18 08:26:00,72.5,69.7,29.86,ESE,112,3.7,-999.0,91,-99.99,,,0.00,Acu-Link.com,2013-04-18 12:26:00,
2013-04-18 10:19:00,80.6,67.7,29.88,SE,135,5.8,-999.0,65,-99.99,,,0.00,Acu-Link.com,2013-04-18 14:19:00,
2013-04-18 10:34:00,81.5,67.7,29.88,SSW,202,2.2,-999.0,63,-99.99,,,0.00,Acu-Link.com,2013-04-18 14:34:00,
2013-04-18 10:49:00,83.1,66.8,29.87,East,90,6.3,-999.0,58,-99.99,,,0.00,Acu-Link.com,2013-04-18 14:49:00,
2013-04-18 11:05:00,84.2,66.3,29.88,SW,225,2.2,-999.0,55,-99.99,,,0.00,Acu-Link.com,2013-04-18 15:05:00,
2013-04-18 11:20:00,82.0,63.7,29.87,ESE,112,3.7,-999.0,54,-99.99,,,0.00,Acu-Link.com,2013-04-18 15:20:00,
2013-04-18 11:35:00,85.1,64.3,29.87,WNW,292,4.2,-999.0,50,-99.99,,,0.00,Acu-Link.com,2013-04-18 15:35:00,
2013-04-18 11:50:00,84.7,64.5,29.87,ESE,112,4.7,-999.0,51,-99.99,,,0.00,Acu-Link.com,2013-04-18 15:50:00,
2013-04-18 12:06:00,83.3,63.8,29.87,ESE,112,5.3,-999.0,52,-99.99,,,0.00,Acu-Link.com,2013-04-18 16:06:00,
2013-04-18 12:21:00,83.1,65.8,29.88,NW,315,1.7,-999.0,56,-99.99,,,0.00,Acu-Link.com,2013-04-18 16:21:00,
2013-04-18 12:36:00,82.6,62.0,29.85,NW,315,2.2,-999.0,50,-99.99,,,0.00,Acu-Link.com,2013-04-18 16:36:00,
2013-04-18 12:51:00,87.4,64.0,29.85,SSW,202,3.2,-999.0,46,-99.99,,,0.00,Acu-Link.com,2013-04-18 16:51:00,
2013-04-18 13:06:00,86.0,65.2,29.84,NW,315,2.2,-999.0,50,-99.99,,,0.00,Acu-Link.com,2013-04-18 17:06:00,
2013-04-18 13:22:00,85.8,63.2,29.86,ESE,112,1.1,-999.0,47,-99.99,,,0.00,Acu-Link.com,2013-04-18 17:22:00,
2013-04-18 13:37:00,86.7,65.2,29.85,SW,225,1.1,-999.0,49,-99.99,,,0.00,Acu-Link.com,2013-04-18 17:37:00,
2013-04-18 13:52:00,84.2,64.6,29.84,West,270,2.7,-999.0,52,-99.99,,,0.00,Acu-Link.com,2013-04-18 17:52:00,
2013-04-18 14:07:00,88.7,66.4,29.83,SSE,157,2.2,-999.0,48,-99.99,,,0.00,Acu-Link.com,2013-04-18 18:07:00,
2013-04-18 14:22:00,87.4,63.4,29.84,West,270,2.2,-999.0,45,-99.99,,,0.00,Acu-Link.com,2013-04-18 18:22:00,
2013-04-18 14:38:00,87.1,62.5,29.83,ESE,112,2.2,-999.0,44,-99.99,,,0.00,Acu-Link.com,2013-04-18 18:38:00,
2013-04-18 14:53:00,86.9,61.7,29.83,NW,315,3.2,-999.0,43,-99.99,,,0.00,Acu-Link.com,2013-04-18 18:53:00,
2013-04-18 15:08:00,86.5,62.6,29.81,NW,315,1.7,-999.0,45,-99.99,,,0.00,Acu-Link.com,2013-04-18 19:08:00,
2013-04-18 15:23:00,87.8,62.5,29.80,WNW,292,4.2,-999.0,43,-99.99,,,0.00,Acu-Link.com,2013-04-18 19:23:00,
2013-04-18 15:38:00,86.9,63.0,29.80,NNW,337,0.0,-999.0,45,-99.99,,,0.00,Acu-Link.com,2013-04-18 19:38:00,
2013-04-18 15:54:00,87.8,63.1,29.80,SW,225,0.0,-999.0,44,-99.99,,,0.00,Acu-Link.com,2013-04-18 19:54:00,
2013-04-18 16:09:00,87.4,64.7,29.79,West,270,2.7,-999.0,47,-99.99,,,0.00,Acu-Link.com,2013-04-18 20:09:00,
2013-04-18 16:24:00,90.0,65.1,29.79,West,270,3.2,-999.0,44,-99.99,,,0.00,Acu-Link.com,2013-04-18 20:24:00,
2013-04-18 16:39:00,86.0,64.0,29.80,West,270,2.7,-999.0,48,-99.99,,,0.00,Acu-Link.com,2013-04-18 20:39:00,
2013-04-18 16:54:00,88.9,65.4,29.79,West,270,1.7,-999.0,46,-99.99,,,0.00,Acu-Link.com,2013-04-18 20:54:00,
2013-04-18 17:10:00,88.3,66.1,29.80,West,270,0.0,-999.0,48,-99.99,,,0.00,Acu-Link.com,2013-04-18 21:10:00,
2013-04-18 17:25:00,89.1,66.2,29.79,WSW,247,0.0,-999.0,47,-99.99,,,0.00,Acu-Link.com,2013-04-18 21:25:00,
2013-04-18 17:40:00,91.4,66.4,29.79,North,0,3.7,-999.0,44,-99.99,,,0.00,Acu-Link.com,2013-04-18 21:40:00,
2013-04-18 17:55:00,92.5,66.0,29.77,SSE,157,1.1,-999.0,42,-99.99,,,0.00,Acu-Link.com,2013-04-18 21:55:00,
2013-04-18 18:11:00,91.6,66.6,29.78,West,270,0.0,-999.0,44,-99.99,,,0.00,Acu-Link.com,2013-04-18 22:11:00,
2013-04-18 18:26:00,90.5,66.2,29.78,West,270,1.1,-999.0,45,-99.99,,,0.00,Acu-Link.com,2013-04-18 22:26:00,
2013-04-18 18:41:00,88.2,65.4,29.79,East,90,0.0,-999.0,47,-99.99,,,0.00,Acu-Link.com,2013-04-18 22:41:00,
2013-04-18 18:56:00,87.4,65.9,29.77,NNE,22,0.0,-999.0,49,-99.99,,,0.00,Acu-Link.com,2013-04-18 22:56:00,
2013-04-18 19:11:00,86.5,65.6,29.78,ESE,112,2.2,-999.0,50,-99.99,,,0.00,Acu-Link.com,2013-04-18 23:11:00,
2013-04-18 19:27:00,85.3,65.6,29.78,South,180,3.2,-999.0,52,-99.99,,,0.00,Acu-Link.com,2013-04-18 23:27:00,
2013-04-18 19:42:00,83.5,66.6,29.78,ESE,112,6.3,-999.0,57,-99.99,,,0.00,Acu-Link.com,2013-04-18 23:42:00,
2013-04-18 19:57:00,81.5,69.5,29.78,ESE,112,5.3,-999.0,67,-99.99,,,0.00,Acu-Link.com,2013-04-18 23:57:00,
2013-04-18 20:12:00,80.6,69.9,29.79,SSE,157,6.3,-999.0,70,-99.99,,,0.00,Acu-Link.com,2013-04-19 00:12:00,
2013-04-18 20:27:00,79.7,69.9,29.79,East,90,7.3,-999.0,72,-99.99,,,0.00,Acu-Link.com,2013-04-19 00:27:00,
2013-04-18 20:43:00,79.2,70.2,29.80,ESE,112,9.4,-999.0,74,-99.99,,,0.00,Acu-Link.com,2013-04-19 00:43:00,
2013-04-18 20:58:00,78.4,69.8,29.81,ESE,112,6.3,-999.0,75,-99.99,,,0.00,Acu-Link.com,2013-04-19 00:58:00,
2013-04-18 21:13:00,77.9,69.7,29.81,SE,135,8.3,-999.0,76,-99.99,,,0.00,Acu-Link.com,2013-04-19 01:13:00,
2013-04-18 21:28:00,77.4,70.0,29.81,SSE,157,6.3,-999.0,78,-99.99,,,0.00,Acu-Link.com,2013-04-19 01:28:00,
2013-04-18 21:43:00,76.8,70.1,29.81,ESE,112,4.7,-999.0,80,-99.99,,,0.00,Acu-Link.com,2013-04-19 01:43:00,
2013-04-18 21:59:00,76.5,70.2,29.81,ESE,112,4.7,-999.0,81,-99.99,,,0.00,Acu-Link.com,2013-04-19 01:59:00,
2013-04-18 22:14:00,76.3,70.0,29.81,East,90,4.2,-999.0,81,-99.99,,,0.00,Acu-Link.com,2013-04-19 02:14:00,
2013-04-18 22:29:00,75.7,69.8,29.82,ESE,112,2.2,-999.0,82,-99.99,,,0.00,Acu-Link.com,2013-04-19 02:29:00,
2013-04-18 22:44:00,75.6,70.1,29.82,ESE,112,3.7,-999.0,83,-99.99,,,0.00,Acu-Link.com,2013-04-19 02:44:00,
2013-04-18 23:00:00,75.4,70.2,29.82,SSE,157,3.7,-999.0,84,-99.99,,,0.00,Acu-Link.com,2013-04-19 03:00:00,
2013-04-18 23:15:00,75.4,70.2,29.83,ESE,112,4.2,-999.0,84,-99.99,,,0.00,Acu-Link.com,2013-04-19 03:15:00,
2013-04-18 23:30:00,75.4,70.2,29.82,SE,135,4.7,-999.0,84,-99.99,,,0.00,Acu-Link.com,2013-04-19 03:30:00,
2013-04-18 23:45:00,75.6,70.4,29.82,ESE,112,4.7,-999.0,84,-99.99,,,0.00,Acu-Link.com,2013-04-19 03:45:00,